sensor_id;sensor_type;location;lat;lon;timestamp;P1;durP1;ratioP1;P2;durP2;ratioP2
26512;SDS011;14186;53.822;10.152;2023-04-12T00:02:24;45.08;;;17.92;;
26512;SDS011;14186;53.822;10.152;2023-04-12T00:07:26;45.50;;;19.58;;
26512;SDS011;14186;53.822;10.152;2023-04-12T00:12:26;41.22;;;19.63;;
26512;SDS011;14186;53.822;10.152;2023-04-12T00:17:26;44.30;;;19.23;;
26512;SDS011;14186;53.822;10.152;2023-04-12T00:22:28;35.50;;;16.92;;
26512;SDS011;14186;53.822;10.152;2023-04-12T00:27:28;42.50;;;17.75;;
26512;SDS011;14186;53.822;10.152;2023-04-12T00:32:28;36.08;;;16.67;;
26512;SDS011;14186;53.822;10.152;2023-04-12T00:37:30;36.42;;;15.13;;
26512;SDS011;14186;53.822;10.152;2023-04-12T00:42:30;33.17;;;14.35;;
26512;SDS011;14186;53.822;10.152;2023-04-12T00:47:30;28.98;;;12.40;;
26512;SDS011;14186;53.822;10.152;2023-04-12T00:52:32;32.10;;;12.68;;
26512;SDS011;14186;53.822;10.152;2023-04-12T00:57:33;28.52;;;11.90;;
26512;SDS011;14186;53.822;10.152;2023-04-12T01:02:33;32.08;;;11.82;;
26512;SDS011;14186;53.822;10.152;2023-04-12T01:07:37;28.55;;;10.68;;
26512;SDS011;14186;53.822;10.152;2023-04-12T01:17:41;22.20;;;9.52;;
26512;SDS011;14186;53.822;10.152;2023-04-12T01:22:48;21.58;;;7.50;;
26512;SDS011;14186;53.822;10.152;2023-04-12T01:27:53;21.08;;;8.50;;
26512;SDS011;14186;53.822;10.152;2023-04-12T01:32:55;22.17;;;7.85;;
26512;SDS011;14186;53.822;10.152;2023-04-12T01:37:56;17.42;;;7.78;;
26512;SDS011;14186;53.822;10.152;2023-04-12T01:43:04;15.38;;;6.70;;
26512;SDS011;14186;53.822;10.152;2023-04-12T01:48:05;19.90;;;7.70;;
26512;SDS011;14186;53.822;10.152;2023-04-12T01:53:07;22.15;;;7.45;;
26512;SDS011;14186;53.822;10.152;2023-04-12T01:58:10;23.52;;;7.68;;
26512;SDS011;14186;53.822;10.152;2023-04-12T02:03:11;17.88;;;6.60;;
26512;SDS011;14186;53.822;10.152;2023-04-12T02:08:11;17.58;;;7.10;;
26512;SDS011;14186;53.822;10.152;2023-04-12T02:13:13;18.90;;;6.25;;
26512;SDS011;14186;53.822;10.152;2023-04-12T02:18:13;14.02;;;6.53;;
26512;SDS011;14186;53.822;10.152;2023-04-12T02:23:13;15.05;;;5.88;;
26512;SDS011;14186;53.822;10.152;2023-04-12T02:28:15;16.55;;;6.28;;
26512;SDS011;14186;53.822;10.152;2023-04-12T02:33:15;14.18;;;6.10;;
26512;SDS011;14186;53.822;10.152;2023-04-12T02:38:15;17.63;;;5.78;;
26512;SDS011;14186;53.822;10.152;2023-04-12T02:43:17;12.63;;;5.82;;
26512;SDS011;14186;53.822;10.152;2023-04-12T02:48:17;14.88;;;5.65;;
26512;SDS011;14186;53.822;10.152;2023-04-12T02:53:17;19.83;;;5.38;;
26512;SDS011;14186;53.822;10.152;2023-04-12T02:58:19;10.13;;;4.60;;
26512;SDS011;14186;53.822;10.152;2023-04-12T03:03:19;15.10;;;5.45;;
26512;SDS011;14186;53.822;10.152;2023-04-12T03:08:19;12.82;;;4.80;;
26512;SDS011;14186;53.822;10.152;2023-04-12T03:13:21;11.52;;;4.30;;
26512;SDS011;14186;53.822;10.152;2023-04-12T03:18:21;14.13;;;4.43;;
26512;SDS011;14186;53.822;10.152;2023-04-12T03:23:21;11.68;;;4.75;;
26512;SDS011;14186;53.822;10.152;2023-04-12T03:28:22;18.67;;;4.18;;
26512;SDS011;14186;53.822;10.152;2023-04-12T03:33:23;13.07;;;4.43;;
26512;SDS011;14186;53.822;10.152;2023-04-12T03:38:23;9.02;;;3.90;;
26512;SDS011;14186;53.822;10.152;2023-04-12T03:43:24;12.25;;;3.65;;
26512;SDS011;14186;53.822;10.152;2023-04-12T03:48:25;13.43;;;3.50;;
26512;SDS011;14186;53.822;10.152;2023-04-12T03:53:25;12.73;;;3.53;;
26512;SDS011;14186;53.822;10.152;2023-04-12T03:58:26;14.10;;;3.45;;
26512;SDS011;14186;53.822;10.152;2023-04-12T04:03:27;8.93;;;2.90;;
26512;SDS011;14186;53.822;10.152;2023-04-12T04:08:27;9.52;;;3.53;;
26512;SDS011;14186;53.822;10.152;2023-04-12T04:13:29;8.63;;;3.17;;
26512;SDS011;14186;53.822;10.152;2023-04-12T04:18:29;8.93;;;2.58;;
26512;SDS011;14186;53.822;10.152;2023-04-12T04:23:29;12.05;;;3.03;;
26512;SDS011;14186;53.822;10.152;2023-04-12T04:28:31;10.98;;;3.35;;
26512;SDS011;14186;53.822;10.152;2023-04-12T04:33:31;13.43;;;2.63;;
26512;SDS011;14186;53.822;10.152;2023-04-12T04:38:31;4.88;;;2.20;;
26512;SDS011;14186;53.822;10.152;2023-04-12T04:43:33;10.27;;;2.65;;
26512;SDS011;14186;53.822;10.152;2023-04-12T04:48:33;7.78;;;2.80;;
26512;SDS011;14186;53.822;10.152;2023-04-12T04:53:33;9.23;;;3.05;;
26512;SDS011;14186;53.822;10.152;2023-04-12T04:58:35;7.57;;;2.28;;
26512;SDS011;14186;53.822;10.152;2023-04-12T05:03:35;9.07;;;2.38;;
26512;SDS011;14186;53.822;10.152;2023-04-12T05:08:35;4.47;;;2.33;;
26512;SDS011;14186;53.822;10.152;2023-04-12T05:13:37;5.38;;;2.10;;
26512;SDS011;14186;53.822;10.152;2023-04-12T05:18:37;5.80;;;1.85;;
26512;SDS011;14186;53.822;10.152;2023-04-12T05:23:40;6.47;;;1.88;;
26512;SDS011;14186;53.822;10.152;2023-04-12T05:28:42;5.57;;;1.83;;
26512;SDS011;14186;53.822;10.152;2023-04-12T05:33:43;5.15;;;1.60;;
26512;SDS011;14186;53.822;10.152;2023-04-12T05:38:43;4.90;;;1.92;;
26512;SDS011;14186;53.822;10.152;2023-04-12T05:43:44;8.15;;;2.50;;
26512;SDS011;14186;53.822;10.152;2023-04-12T05:48:44;5.95;;;1.52;;
26512;SDS011;14186;53.822;10.152;2023-04-12T05:53:45;5.60;;;1.45;;
26512;SDS011;14186;53.822;10.152;2023-04-12T05:58:47;3.28;;;1.77;;
26512;SDS011;14186;53.822;10.152;2023-04-12T06:03:47;5.90;;;1.40;;
26512;SDS011;14186;53.822;10.152;2023-04-12T06:08:47;7.50;;;1.65;;
26512;SDS011;14186;53.822;10.152;2023-04-12T06:13:49;5.43;;;1.98;;
26512;SDS011;14186;53.822;10.152;2023-04-12T06:18:49;6.93;;;1.80;;
26512;SDS011;14186;53.822;10.152;2023-04-12T06:23:49;6.78;;;1.88;;
26512;SDS011;14186;53.822;10.152;2023-04-12T06:28:51;7.00;;;1.98;;
26512;SDS011;14186;53.822;10.152;2023-04-12T06:33:51;9.45;;;1.77;;
26512;SDS011;14186;53.822;10.152;2023-04-12T06:38:51;7.57;;;1.40;;
26512;SDS011;14186;53.822;10.152;2023-04-12T06:43:53;6.00;;;1.50;;
26512;SDS011;14186;53.822;10.152;2023-04-12T06:48:53;5.07;;;1.58;;
26512;SDS011;14186;53.822;10.152;2023-04-12T06:53:53;4.88;;;1.38;;
26512;SDS011;14186;53.822;10.152;2023-04-12T06:58:55;5.03;;;1.60;;
26512;SDS011;14186;53.822;10.152;2023-04-12T07:03:55;4.72;;;1.10;;
26512;SDS011;14186;53.822;10.152;2023-04-12T07:08:55;6.22;;;1.30;;
26512;SDS011;14186;53.822;10.152;2023-04-12T07:13:57;3.50;;;1.75;;
26512;SDS011;14186;53.822;10.152;2023-04-12T07:18:57;6.30;;;1.52;;
26512;SDS011;14186;53.822;10.152;2023-04-12T07:23:57;4.05;;;1.30;;
26512;SDS011;14186;53.822;10.152;2023-04-12T07:28:59;3.60;;;1.10;;
26512;SDS011;14186;53.822;10.152;2023-04-12T07:33:59;6.05;;;1.30;;
26512;SDS011;14186;53.822;10.152;2023-04-12T07:38:59;2.67;;;0.98;;
26512;SDS011;14186;53.822;10.152;2023-04-12T07:44:01;5.93;;;1.33;;
26512;SDS011;14186;53.822;10.152;2023-04-12T07:49:01;3.47;;;0.90;;
26512;SDS011;14186;53.822;10.152;2023-04-12T07:54:01;6.60;;;1.02;;
26512;SDS011;14186;53.822;10.152;2023-04-12T07:59:03;4.00;;;1.23;;
26512;SDS011;14186;53.822;10.152;2023-04-12T08:04:03;4.50;;;1.60;;
26512;SDS011;14186;53.822;10.152;2023-04-12T08:09:03;3.65;;;1.33;;
26512;SDS011;14186;53.822;10.152;2023-04-12T08:14:05;5.35;;;1.25;;
26512;SDS011;14186;53.822;10.152;2023-04-12T08:19:05;3.65;;;1.38;;
26512;SDS011;14186;53.822;10.152;2023-04-12T08:24:05;3.55;;;1.60;;
26512;SDS011;14186;53.822;10.152;2023-04-12T08:29:07;6.15;;;1.60;;
26512;SDS011;14186;53.822;10.152;2023-04-12T08:34:07;4.70;;;1.20;;
26512;SDS011;14186;53.822;10.152;2023-04-12T08:39:08;2.17;;;1.10;;
26512;SDS011;14186;53.822;10.152;2023-04-12T08:44:10;3.40;;;1.10;;
26512;SDS011;14186;53.822;10.152;2023-04-12T08:49:10;3.40;;;1.30;;
26512;SDS011;14186;53.822;10.152;2023-04-12T08:54:10;5.53;;;1.75;;
26512;SDS011;14186;53.822;10.152;2023-04-12T08:59:12;2.75;;;1.40;;
26512;SDS011;14186;53.822;10.152;2023-04-12T09:04:12;6.18;;;2.60;;
26512;SDS011;14186;53.822;10.152;2023-04-12T09:09:13;5.75;;;2.38;;
26512;SDS011;14186;53.822;10.152;2023-04-12T09:14:21;5.78;;;2.00;;
26512;SDS011;14186;53.822;10.152;2023-04-12T09:19:31;4.72;;;1.90;;
26512;SDS011;14186;53.822;10.152;2023-04-12T09:24:39;5.80;;;1.58;;
26512;SDS011;14186;53.822;10.152;2023-04-12T09:29:45;4.93;;;1.60;;
26512;SDS011;14186;53.822;10.152;2023-04-12T09:34:53;4.10;;;1.35;;
26512;SDS011;14186;53.822;10.152;2023-04-12T09:40:00;3.83;;;1.42;;
26512;SDS011;14186;53.822;10.152;2023-04-12T09:45:17;8.52;;;2.35;;
26512;SDS011;14186;53.822;10.152;2023-04-12T09:50:19;7.68;;;2.50;;
26512;SDS011;14186;53.822;10.152;2023-04-12T09:55:20;8.63;;;3.47;;
26512;SDS011;14186;53.822;10.152;2023-04-12T10:00:22;7.40;;;2.03;;
26512;SDS011;14186;53.822;10.152;2023-04-12T10:05:23;16.58;;;10.18;;
26512;SDS011;14186;53.822;10.152;2023-04-12T10:10:23;7.65;;;6.60;;
26512;SDS011;14186;53.822;10.152;2023-04-12T10:15:24;6.35;;;1.67;;
26512;SDS011;14186;53.822;10.152;2023-04-12T10:20:25;5.65;;;1.52;;
26512;SDS011;14186;53.822;10.152;2023-04-12T10:25:26;6.35;;;2.20;;
26512;SDS011;14186;53.822;10.152;2023-04-12T10:30:28;2.97;;;1.67;;
26512;SDS011;14186;53.822;10.152;2023-04-12T10:35:28;5.43;;;1.20;;
26512;SDS011;14186;53.822;10.152;2023-04-12T10:40:29;4.47;;;1.58;;
26512;SDS011;14186;53.822;10.152;2023-04-12T10:45:37;5.90;;;2.13;;
26512;SDS011;14186;53.822;10.152;2023-04-12T10:50:37;4.82;;;1.10;;
26512;SDS011;14186;53.822;10.152;2023-04-12T10:55:38;3.85;;;1.33;;
26512;SDS011;14186;53.822;10.152;2023-04-12T11:05:59;3.67;;;1.40;;
26512;SDS011;14186;53.822;10.152;2023-04-12T11:11:00;4.63;;;0.80;;
26512;SDS011;14186;53.822;10.152;2023-04-12T11:16:00;8.13;;;1.40;;
26512;SDS011;14186;53.822;10.152;2023-04-12T11:21:03;3.38;;;1.23;;
26512;SDS011;14186;53.822;10.152;2023-04-12T11:26:04;5.95;;;1.67;;
26512;SDS011;14186;53.822;10.152;2023-04-12T11:31:04;5.90;;;1.92;;
26512;SDS011;14186;53.822;10.152;2023-04-12T11:36:07;4.70;;;1.95;;
26512;SDS011;14186;53.822;10.152;2023-04-12T11:41:08;4.25;;;1.55;;
26512;SDS011;14186;53.822;10.152;2023-04-12T11:46:08;6.45;;;1.45;;
26512;SDS011;14186;53.822;10.152;2023-04-12T11:51:19;5.35;;;2.10;;
26512;SDS011;14186;53.822;10.152;2023-04-12T11:56:19;6.68;;;2.13;;
26512;SDS011;14186;53.822;10.152;2023-04-12T12:01:20;7.47;;;2.40;;
26512;SDS011;14186;53.822;10.152;2023-04-12T12:06:22;6.10;;;2.15;;
26512;SDS011;14186;53.822;10.152;2023-04-12T12:11:23;6.22;;;2.05;;
26512;SDS011;14186;53.822;10.152;2023-04-12T12:16:23;6.38;;;2.22;;
26512;SDS011;14186;53.822;10.152;2023-04-12T12:21:25;6.00;;;2.70;;
26512;SDS011;14186;53.822;10.152;2023-04-12T12:26:26;7.18;;;2.55;;
26512;SDS011;14186;53.822;10.152;2023-04-12T12:31:27;5.50;;;2.60;;
26512;SDS011;14186;53.822;10.152;2023-04-12T12:36:29;8.60;;;3.08;;
26512;SDS011;14186;53.822;10.152;2023-04-12T12:41:29;5.38;;;2.40;;
26512;SDS011;14186;53.822;10.152;2023-04-12T12:46:29;8.50;;;2.45;;
26512;SDS011;14186;53.822;10.152;2023-04-12T12:51:31;7.63;;;2.73;;
26512;SDS011;14186;53.822;10.152;2023-04-12T12:56:31;7.25;;;2.90;;
26512;SDS011;14186;53.822;10.152;2023-04-12T13:01:31;9.48;;;2.90;;
26512;SDS011;14186;53.822;10.152;2023-04-12T13:06:33;11.20;;;3.67;;
26512;SDS011;14186;53.822;10.152;2023-04-12T13:11:33;4.38;;;2.42;;
26512;SDS011;14186;53.822;10.152;2023-04-12T13:16:33;6.50;;;2.30;;
26512;SDS011;14186;53.822;10.152;2023-04-12T13:21:35;4.97;;;1.90;;
26512;SDS011;14186;53.822;10.152;2023-04-12T13:26:35;6.10;;;2.10;;
26512;SDS011;14186;53.822;10.152;2023-04-12T13:31:35;4.50;;;2.33;;
26512;SDS011;14186;53.822;10.152;2023-04-12T13:36:37;7.85;;;3.00;;
26512;SDS011;14186;53.822;10.152;2023-04-12T13:41:37;4.47;;;2.28;;
26512;SDS011;14186;53.822;10.152;2023-04-12T13:46:37;5.35;;;1.92;;
26512;SDS011;14186;53.822;10.152;2023-04-12T13:51:39;7.63;;;2.17;;
26512;SDS011;14186;53.822;10.152;2023-04-12T13:56:39;7.22;;;1.85;;
26512;SDS011;14186;53.822;10.152;2023-04-12T14:01:39;7.40;;;2.70;;
26512;SDS011;14186;53.822;10.152;2023-04-12T14:06:41;5.13;;;1.45;;
26512;SDS011;14186;53.822;10.152;2023-04-12T14:11:44;3.70;;;1.13;;
26512;SDS011;14186;53.822;10.152;2023-04-12T14:16:45;2.88;;;1.42;;
26512;SDS011;14186;53.822;10.152;2023-04-12T14:21:47;4.07;;;1.45;;
26512;SDS011;14186;53.822;10.152;2023-04-12T14:26:47;4.68;;;1.48;;
26512;SDS011;14186;53.822;10.152;2023-04-12T14:31:47;4.53;;;1.40;;
26512;SDS011;14186;53.822;10.152;2023-04-12T14:36:49;3.55;;;1.13;;
26512;SDS011;14186;53.822;10.152;2023-04-12T14:41:49;5.15;;;1.42;;
26512;SDS011;14186;53.822;10.152;2023-04-12T14:46:49;3.78;;;1.65;;
26512;SDS011;14186;53.822;10.152;2023-04-12T14:51:51;1.67;;;1.10;;
26512;SDS011;14186;53.822;10.152;2023-04-12T14:56:51;3.05;;;1.10;;
26512;SDS011;14186;53.822;10.152;2023-04-12T15:01:52;5.35;;;2.40;;
26512;SDS011;14186;53.822;10.152;2023-04-12T15:06:54;6.57;;;1.75;;
26512;SDS011;14186;53.822;10.152;2023-04-12T15:11:54;5.88;;;1.95;;
26512;SDS011;14186;53.822;10.152;2023-04-12T15:16:54;10.00;;;4.68;;
26512;SDS011;14186;53.822;10.152;2023-04-12T15:21:56;21.58;;;10.40;;
26512;SDS011;14186;53.822;10.152;2023-04-12T15:26:56;19.35;;;9.18;;
26512;SDS011;14186;53.822;10.152;2023-04-12T15:31:56;24.92;;;13.45;;
26512;SDS011;14186;53.822;10.152;2023-04-12T15:36:58;24.55;;;11.10;;
26512;SDS011;14186;53.822;10.152;2023-04-12T15:41:58;9.10;;;4.47;;
26512;SDS011;14186;53.822;10.152;2023-04-12T15:46:58;11.00;;;5.47;;
26512;SDS011;14186;53.822;10.152;2023-04-12T15:52:00;11.18;;;5.82;;
26512;SDS011;14186;53.822;10.152;2023-04-12T15:57:00;17.30;;;9.13;;
26512;SDS011;14186;53.822;10.152;2023-04-12T16:02:00;9.60;;;6.00;;
26512;SDS011;14186;53.822;10.152;2023-04-12T16:07:02;11.13;;;6.50;;
26512;SDS011;14186;53.822;10.152;2023-04-12T16:12:02;12.65;;;6.93;;
26512;SDS011;14186;53.822;10.152;2023-04-12T16:17:02;7.43;;;4.13;;
26512;SDS011;14186;53.822;10.152;2023-04-12T16:22:04;5.20;;;1.90;;
26512;SDS011;14186;53.822;10.152;2023-04-12T16:27:04;3.97;;;1.88;;
26512;SDS011;14186;53.822;10.152;2023-04-12T16:32:05;5.82;;;2.22;;
26512;SDS011;14186;53.822;10.152;2023-04-12T16:37:06;2.95;;;1.73;;
26512;SDS011;14186;53.822;10.152;2023-04-12T16:42:06;5.78;;;3.25;;
26512;SDS011;14186;53.822;10.152;2023-04-12T16:47:07;4.53;;;2.15;;
26512;SDS011;14186;53.822;10.152;2023-04-12T16:52:08;4.80;;;1.60;;
26512;SDS011;14186;53.822;10.152;2023-04-12T16:57:09;4.05;;;2.10;;
26512;SDS011;14186;53.822;10.152;2023-04-12T17:02:09;4.25;;;1.65;;
26512;SDS011;14186;53.822;10.152;2023-04-12T17:07:11;5.78;;;2.50;;
26512;SDS011;14186;53.822;10.152;2023-04-12T17:12:11;8.50;;;3.63;;
26512;SDS011;14186;53.822;10.152;2023-04-12T17:17:11;5.38;;;2.22;;
26512;SDS011;14186;53.822;10.152;2023-04-12T17:22:12;10.00;;;3.33;;
26512;SDS011;14186;53.822;10.152;2023-04-12T17:27:13;4.72;;;2.30;;
26512;SDS011;14186;53.822;10.152;2023-04-12T17:32:13;2.90;;;1.92;;
26512;SDS011;14186;53.822;10.152;2023-04-12T17:37:15;5.15;;;2.05;;
26512;SDS011;14186;53.822;10.152;2023-04-12T17:42:15;6.03;;;2.75;;
26512;SDS011;14186;53.822;10.152;2023-04-12T17:47:16;4.45;;;2.17;;
26512;SDS011;14186;53.822;10.152;2023-04-12T17:52:17;4.88;;;2.20;;
26512;SDS011;14186;53.822;10.152;2023-04-12T17:57:18;8.05;;;4.30;;
26512;SDS011;14186;53.822;10.152;2023-04-12T18:02:18;5.43;;;3.08;;
26512;SDS011;14186;53.822;10.152;2023-04-12T18:07:19;5.90;;;2.78;;
26512;SDS011;14186;53.822;10.152;2023-04-12T18:12:19;4.53;;;2.25;;
26512;SDS011;14186;53.822;10.152;2023-04-12T18:17:20;4.35;;;2.30;;
26512;SDS011;14186;53.822;10.152;2023-04-12T18:22:21;3.78;;;2.00;;
26512;SDS011;14186;53.822;10.152;2023-04-12T18:27:21;4.70;;;2.42;;
26512;SDS011;14186;53.822;10.152;2023-04-12T18:32:22;5.55;;;2.72;;
26512;SDS011;14186;53.822;10.152;2023-04-12T18:37:23;6.38;;;2.95;;
26512;SDS011;14186;53.822;10.152;2023-04-12T18:42:23;6.90;;;3.25;;
26512;SDS011;14186;53.822;10.152;2023-04-12T18:47:24;6.38;;;2.97;;
26512;SDS011;14186;53.822;10.152;2023-04-12T18:52:26;3.05;;;2.17;;
26512;SDS011;14186;53.822;10.152;2023-04-12T18:57:26;5.32;;;2.53;;
26512;SDS011;14186;53.822;10.152;2023-04-12T19:02:26;5.75;;;3.13;;
26512;SDS011;14186;53.822;10.152;2023-04-12T19:07:28;5.40;;;3.08;;
26512;SDS011;14186;53.822;10.152;2023-04-12T19:12:28;8.98;;;3.40;;
26512;SDS011;14186;53.822;10.152;2023-04-12T19:17:28;6.15;;;3.17;;
26512;SDS011;14186;53.822;10.152;2023-04-12T19:22:30;7.00;;;3.63;;
26512;SDS011;14186;53.822;10.152;2023-04-12T19:27:30;6.75;;;4.07;;
26512;SDS011;14186;53.822;10.152;2023-04-12T19:32:30;13.45;;;6.95;;
26512;SDS011;14186;53.822;10.152;2023-04-12T19:37:32;4.57;;;2.25;;
26512;SDS011;14186;53.822;10.152;2023-04-12T19:42:32;3.50;;;1.70;;
26512;SDS011;14186;53.822;10.152;2023-04-12T19:47:32;3.15;;;1.60;;
26512;SDS011;14186;53.822;10.152;2023-04-12T19:52:34;3.15;;;1.85;;
26512;SDS011;14186;53.822;10.152;2023-04-12T19:57:34;2.92;;;1.92;;
26512;SDS011;14186;53.822;10.152;2023-04-12T20:02:34;5.22;;;2.60;;
26512;SDS011;14186;53.822;10.152;2023-04-12T20:07:36;3.88;;;2.53;;
26512;SDS011;14186;53.822;10.152;2023-04-12T20:12:36;6.00;;;2.95;;
26512;SDS011;14186;53.822;10.152;2023-04-12T20:17:37;7.70;;;3.33;;
26512;SDS011;14186;53.822;10.152;2023-04-12T20:22:39;4.90;;;3.33;;
26512;SDS011;14186;53.822;10.152;2023-04-12T20:27:40;5.72;;;4.05;;
26512;SDS011;14186;53.822;10.152;2023-04-12T20:32:40;6.03;;;3.80;;
26512;SDS011;14186;53.822;10.152;2023-04-12T20:37:42;7.78;;;5.00;;
26512;SDS011;14186;53.822;10.152;2023-04-12T20:42:42;8.73;;;5.15;;
26512;SDS011;14186;53.822;10.152;2023-04-12T20:47:42;7.82;;;4.57;;
26512;SDS011;14186;53.822;10.152;2023-04-12T20:52:43;7.63;;;4.70;;
26512;SDS011;14186;53.822;10.152;2023-04-12T20:57:44;8.27;;;4.28;;
26512;SDS011;14186;53.822;10.152;2023-04-12T21:02:44;8.38;;;4.35;;
26512;SDS011;14186;53.822;10.152;2023-04-12T21:07:46;7.13;;;4.38;;
26512;SDS011;14186;53.822;10.152;2023-04-12T21:12:46;8.23;;;4.28;;
26512;SDS011;14186;53.822;10.152;2023-04-12T21:17:46;7.07;;;3.85;;
26512;SDS011;14186;53.822;10.152;2023-04-12T21:22:49;7.65;;;3.65;;
26512;SDS011;14186;53.822;10.152;2023-04-12T21:27:49;8.50;;;4.13;;
26512;SDS011;14186;53.822;10.152;2023-04-12T21:32:49;9.15;;;4.03;;
26512;SDS011;14186;53.822;10.152;2023-04-12T21:37:51;7.30;;;3.63;;
26512;SDS011;14186;53.822;10.152;2023-04-12T21:42:51;7.10;;;3.97;;
26512;SDS011;14186;53.822;10.152;2023-04-12T21:47:52;8.80;;;3.97;;
26512;SDS011;14186;53.822;10.152;2023-04-12T21:52:53;8.77;;;4.30;;
26512;SDS011;14186;53.822;10.152;2023-04-12T21:57:53;7.72;;;4.13;;
26512;SDS011;14186;53.822;10.152;2023-04-12T22:02:54;8.88;;;4.50;;
26512;SDS011;14186;53.822;10.152;2023-04-12T22:07:55;8.88;;;4.47;;
26512;SDS011;14186;53.822;10.152;2023-04-12T22:12:55;10.73;;;5.43;;
26512;SDS011;14186;53.822;10.152;2023-04-12T22:17:56;13.10;;;5.88;;
26512;SDS011;14186;53.822;10.152;2023-04-12T22:22:57;12.13;;;5.90;;
26512;SDS011;14186;53.822;10.152;2023-04-12T22:27:57;13.38;;;6.28;;
26512;SDS011;14186;53.822;10.152;2023-04-12T22:32:58;14.45;;;6.47;;
26512;SDS011;14186;53.822;10.152;2023-04-12T22:37:59;14.02;;;7.20;;
26512;SDS011;14186;53.822;10.152;2023-04-12T22:42:59;14.82;;;6.93;;
26512;SDS011;14186;53.822;10.152;2023-04-12T22:48:00;14.80;;;7.55;;
26512;SDS011;14186;53.822;10.152;2023-04-12T22:53:01;18.10;;;7.03;;
26512;SDS011;14186;53.822;10.152;2023-04-12T22:58:01;16.98;;;7.65;;
26512;SDS011;14186;53.822;10.152;2023-04-12T23:03:01;14.85;;;6.50;;
26512;SDS011;14186;53.822;10.152;2023-04-12T23:08:03;13.02;;;5.97;;
26512;SDS011;14186;53.822;10.152;2023-04-12T23:13:03;12.40;;;5.30;;
26512;SDS011;14186;53.822;10.152;2023-04-12T23:18:04;12.02;;;4.93;;
26512;SDS011;14186;53.822;10.152;2023-04-12T23:23:05;8.05;;;4.75;;
26512;SDS011;14186;53.822;10.152;2023-04-12T23:28:06;9.20;;;4.60;;
26512;SDS011;14186;53.822;10.152;2023-04-12T23:33:06;9.35;;;4.05;;
26512;SDS011;14186;53.822;10.152;2023-04-12T23:38:08;8.15;;;3.95;;
26512;SDS011;14186;53.822;10.152;2023-04-12T23:43:08;9.13;;;3.50;;
26512;SDS011;14186;53.822;10.152;2023-04-12T23:48:08;14.07;;;4.28;;
26512;SDS011;14186;53.822;10.152;2023-04-12T23:53:10;8.13;;;3.67;;
26512;SDS011;14186;53.822;10.152;2023-04-12T23:58:10;12.10;;;3.67;;
